CheckWX is a tool to help pilots better visualize weather data.  It is not intended as a substitute for an official pre-flight weather briefing.

18:24:26 UTC

KWDG METAR
Enid Woodring Regional Airport
Enid, Oklahoma, USA
Current

34 mins ago

KWDG 201750Z 18008KT 10SM SCT026 SCT031 BKN041 BKN200 29/20 A2994
Observed
Sep-20 @ 17:50 UTC
Wind
  • 180° at 8 KTS
Visibility
10 SM
Flight Rules
VFR
Cloud Levels
  • Scattered at 2,600' AGL
  • Scattered at 3,100' AGL
  • Broken at 4,100' AGL
  • Broken at 20,000' AGL
Temperature
29°C / 84°F
Dewpoint
20°C / 68°F
Heat Index
31°C / 87°F
Humidity
58%
Altimeter
29.94" Hg
Pressure
1013.92 hPa
Previous

2 hours ago

KWDG 201648Z 16008KT 10SM BKN019 BKN200 26/22 A2995
Observed
Sep-20 @ 16:48 UTC
Wind
  • 160° at 8 KTS
Visibility
10 SM
Flight Rules
MVFR
Cloud Levels
  • Broken at 1,900' AGL
  • Broken at 20,000' AGL
Temperature
26°C / 79°F
Dewpoint
22°C / 72°F
Humidity
79%
Altimeter
29.95" Hg
Pressure
1014.22 hPa
Previous

3 hours ago

KWDG 201550Z 16008KT 10SM BKN005 BKN023 BKN029 25/23 A2997
Observed
Sep-20 @ 15:50 UTC
Wind
  • 160° at 8 KTS
Visibility
10 SM
Flight Rules
IFR
Cloud Levels
  • Broken at 500' AGL
  • Broken at 2,300' AGL
  • Broken at 2,900' AGL
Temperature
25°C / 77°F
Dewpoint
23°C / 73°F
Humidity
89%
Altimeter
29.97" Hg
Pressure
1014.92 hPa